Time;durP1;ratioP1;P1;durP2;ratioP2;P2;SDS_P1;SDS_P2;PMS_P1;PMS_P2;Temp;Humidity;BMP_temperature;BMP_pressure;BME280_temperature;BME280_humidity;BME280_pressure;Samples;Min_cycle;Max_cycle;Signal;HPM_P1;HPM_P2
2021/11/03 00:00:26;;;;;;;20.43;15.73;;;;;;;10.31;78.44;101013.09;6121070;23;20164;-64
2021/11/03 00:02:52;;;;;;;21.13;15.57;;;;;;;9.90;78.63;100951.63;6120784;23;20527;-64
2021/11/03 00:05:18;;;;;;;19.87;15.43;;;;;;;10.44;78.17;101012.06;6120078;23;20286;-64
2021/11/03 00:07:44;;;;;;;20.03;15.07;;;;;;;10.45;78.35;101010.09;6121431;23;20160;-64
2021/11/03 00:10:12;;;;;;;19.97;14.17;;;;;;;10.48;78.08;101017.53;6094765;23;20740;-64
2021/11/03 00:12:38;;;;;;;21.10;14.80;;;;;;;10.31;78.45;101024.94;6120933;23;20217;-64
2021/11/03 00:15:05;;;;;;;21.83;15.53;;;;;;;10.30;78.40;101017.06;6120108;23;20164;-64
2021/11/03 00:17:30;;;;;;;13.37;11.03;;;;;;;10.27;77.88;101035.31;6121092;23;20189;-64
2021/11/03 00:19:56;;;;;;;19.93;14.87;;;;;;;10.28;78.24;101025.00;6121025;23;20486;-64
2021/11/03 00:22:22;;;;;;;19.47;14.63;;;;;;;9.79;78.65;100970.38;6120706;23;20232;-64
2021/11/03 00:24:47;;;;;;;19.90;14.57;;;;;;;10.23;78.60;101040.13;6119584;23;20179;-64
2021/11/03 00:27:13;;;;;;;19.97;15.23;;;;;;;10.15;78.12;101019.25;6120605;23;20153;-64
2021/11/03 00:29:39;;;;;;;18.97;14.83;;;;;;;9.97;77.82;100990.25;6121487;23;20157;-64
2021/11/03 00:32:08;;;;;;;21.47;14.77;;;;;;;10.27;77.88;101028.97;6121056;23;20161;-62
2021/11/03 00:34:34;;;;;;;18.03;15.03;;;;;;;10.24;77.74;101044.44;6120514;23;20944;-62
2021/11/03 00:37:00;;;;;;;20.63;15.00;;;;;;;10.18;77.30;101028.72;6121261;23;20152;-62
2021/11/03 00:39:26;;;;;;;17.33;13.37;;;;;;;10.21;77.18;101027.88;6120807;23;20732;-62
2021/11/03 00:41:53;;;;;;;18.60;14.07;;;;;;;10.21;77.21;101033.41;6120433;23;20152;-62
2021/11/03 00:44:20;;;;;;;18.80;14.03;;;;;;;10.18;77.60;101048.09;6120656;23;20284;-63
2021/11/03 00:46:45;;;;;;;18.70;13.87;;;;;;;10.21;77.54;101041.72;6120537;23;20153;-63
2021/11/03 00:49:11;;;;;;;17.10;13.53;;;;;;;10.21;77.88;101050.84;6120511;23;20211;-63
2021/11/03 00:51:36;;;;;;;18.10;14.50;;;;;;;10.22;77.56;101048.84;6121233;23;20230;-64
2021/11/03 00:54:02;;;;;;;18.10;14.00;;;;;;;9.99;77.98;101021.84;6120823;23;20503;-65
2021/11/03 00:56:27;;;;;;;15.60;13.13;;;;;;;10.27;78.14;101064.97;6119832;23;20180;-63
2021/11/03 00:58:53;;;;;;;15.87;12.83;;;;;;;10.31;78.14;101068.47;6121084;23;20190;-63
2021/11/03 01:01:18;;;;;;;16.63;12.80;;;;;;;10.29;78.03;101065.34;6120792;23;20161;-64
2021/11/03 01:03:44;;;;;;;17.17;13.40;;;;;;;10.37;78.06;101069.56;6120920;23;20228;-62
2021/11/03 01:06:09;;;;;;;15.23;12.73;;;;;;;10.42;78.32;101071.88;6119810;23;20647;-64
2021/11/03 01:08:35;;;;;;;16.53;12.33;;;;;;;10.42;78.13;101074.63;6120871;23;20158;-64
2021/11/03 01:11:01;;;;;;;18.07;12.83;;;;;;;10.42;78.02;101078.19;6122102;23;20639;-64
2021/11/03 01:13:27;;;;;;;20.50;13.03;;;;;;;10.42;78.04;101089.28;6122330;23;20562;-64
2021/11/03 01:15:57;;;;;;;17.50;12.67;;;;;;;10.47;77.92;101082.47;6121468;23;20555;-65
2021/11/03 01:18:28;;;;;;;14.73;11.53;;;;;;;10.45;77.66;101079.34;6122547;23;20188;-65
2021/11/03 01:20:54;;;;;;;16.43;12.07;;;;;;;10.50;77.68;101076.09;6122486;23;20165;-65
2021/11/03 01:23:21;;;;;;;19.13;14.93;;;;;;;10.52;77.64;101088.34;6096224;23;20160;-65
2021/11/03 01:25:47;;;;;;;17.20;12.00;;;;;;;10.56;77.70;101088.25;6121454;23;20153;-65
2021/11/03 01:28:13;;;;;;;23.47;15.60;;;;;;;10.15;77.74;101024.78;6122419;23;20158;-65
2021/11/03 01:30:38;;;;;;;19.73;13.43;;;;;;;10.46;77.77;101073.38;6123152;23;20620;-65
2021/11/03 01:33:05;;;;;;;17.63;13.40;;;;;;;10.47;77.66;101079.69;6122347;23;20189;-65
2021/11/03 01:35:31;;;;;;;17.03;13.20;;;;;;;10.49;77.55;101072.53;6121242;23;20202;-65
2021/11/03 01:37:57;;;;;;;19.17;14.67;;;;;;;10.55;78.00;101087.47;6122217;23;20189;-65
2021/11/03 01:40:26;;;;;;;22.43;14.50;;;;;;;10.25;77.76;101050.78;6122238;23;20616;-65
2021/11/03 01:42:52;;;;;;;23.87;16.43;;;;;;;10.51;77.66;101097.81;6122059;23;20157;-65
2021/11/03 01:45:20;;;;;;;21.07;13.43;;;;;;;10.55;77.82;101100.56;6121204;23;20181;-65
2021/11/03 01:47:59;;;;;;;22.87;14.60;;;;;;;10.57;77.28;101112.78;6096226;23;20215;-65
2021/11/03 01:50:30;;;;;;;244.30;24.10;;;;;;;10.43;78.08;101107.47;6122769;23;20141;-65
2021/11/03 01:53:07;;;;;;;145.70;20.97;;;;;;;10.27;78.63;101101.78;6096195;23;20149;-65
2021/11/03 01:55:34;;;;;;;61.93;17.87;;;;;;;10.28;78.39;101094.25;6121307;23;20142;-64
2021/11/03 01:58:10;;;;;;;65.10;18.57;;;;;;;10.37;78.62;101097.28;6122132;23;20189;-65
2021/11/03 02:00:39;;;;;;;46.53;17.97;;;;;;;10.35;78.61;101106.00;6122312;23;20152;-64
2021/11/03 02:03:11;;;;;;;161.50;22.07;;;;;;;10.31;78.82;101115.56;6122301;23;20626;-65
2021/11/03 02:05:38;;;;;;;48.87;18.77;;;;;;;10.36;78.83;101109.56;6121426;23;20161;-65
2021/11/03 02:08:04;;;;;;;61.23;19.07;;;;;;;10.43;78.73;101128.84;6122312;23;20142;-64
2021/11/03 02:10:30;;;;;;;173.13;20.07;;;;;;;10.33;78.71;101136.13;6122099;23;20362;-64
2021/11/03 02:12:57;;;;;;;127.60;19.00;;;;;;;10.27;78.74;101137.78;6121764;23;20307;-64
2021/11/03 02:15:23;;;;;;;196.33;18.00;;;;;;;10.33;78.72;101141.66;6120955;23;20597;-63
2021/11/03 02:17:49;;;;;;;76.40;15.73;;;;;;;10.35;78.71;101147.56;6122000;23;20640;-64
2021/11/03 02:20:18;;;;;;;93.97;16.57;;;;;;;10.39;78.67;101153.84;6122200;23;20152;-63
2021/11/03 02:23:00;;;;;;;25.20;15.47;;;;;;;10.33;78.48;101133.34;6121994;23;20162;-63
2021/11/03 02:25:33;;;;;;;163.93;15.97;;;;;;;10.45;78.36;101154.94;6120872;23;20161;-64
2021/11/03 02:28:01;;;;;;;95.67;15.97;;;;;;;10.48;78.12;101143.00;6122076;23;20175;-64
2021/11/03 02:30:27;;;;;;;86.00;15.13;;;;;;;10.45;78.08;101160.47;6122011;23;20169;-64
2021/11/03 02:32:59;;;;;;;57.87;13.50;;;;;;;10.49;77.94;101157.63;6122467;23;20227;-64
2021/11/03 02:35:25;;;;;;;81.20;15.03;;;;;;;9.75;77.65;101036.06;6120808;23;20212;-64
2021/11/03 02:37:53;;;;;;;61.57;13.73;;;;;;;10.48;78.04;101158.84;6121925;23;20187;-64
2021/11/03 02:40:35;;;;;;;56.40;13.20;;;;;;;10.45;77.74;101143.84;6121634;23;20168;-64
2021/11/03 02:43:07;;;;;;;51.93;13.40;;;;;;;10.44;77.67;101147.81;6121937;23;20172;-64
2021/11/03 02:45:52;;;;;;;69.60;12.87;;;;;;;10.47;77.74;101158.09;6120777;23;20462;-63
2021/11/03 02:48:19;;;;;;;66.80;13.53;;;;;;;10.40;77.76;101160.94;6121460;23;20199;-62
2021/11/03 02:51:01;;;;;;;60.57;12.23;;;;;;;10.14;77.42;101124.94;6122109;23;20139;-63
2021/11/03 02:53:28;;;;;;;70.77;11.73;;;;;;;9.39;77.53;101032.97;6122170;23;20150;-61
2021/11/03 02:55:54;;;;;;;74.80;12.67;;;;;;;10.27;77.66;101175.78;6120422;23;20162;-61
2021/11/03 02:58:19;;;;;;;53.47;12.97;;;;;;;10.30;77.88;101159.09;6121567;23;20699;-62
2021/11/03 03:00:45;;;;;;;61.40;13.13;;;;;;;10.30;77.68;101163.88;6121765;23;20554;-62
2021/11/03 03:03:11;;;;;;;101.50;12.67;;;;;;;10.24;77.71;101157.25;6121459;23;20162;-62
2021/11/03 03:05:37;;;;;;;74.20;12.50;;;;;;;10.31;77.88;101179.28;6120781;23;20158;-63
2021/11/03 03:08:05;;;;;;;84.40;12.90;;;;;;;10.15;77.89;101148.66;6121497;23;20231;-64
2021/11/03 03:10:30;;;;;;;40.47;11.63;;;;;;;10.28;78.13;101188.41;6122239;23;20660;-63
2021/11/03 03:12:55;;;;;;;84.33;11.10;;;;;;;10.19;78.31;101180.63;6121196;23;20188;-63
2021/11/03 03:15:21;;;;;;;73.60;11.20;;;;;;;10.04;78.60;101187.56;6120216;23;20214;-62
2021/11/03 03:17:46;;;;;;;125.70;12.57;;;;;;;10.12;78.50;101188.25;6121629;23;20607;-64
2021/11/03 03:20:12;;;;;;;50.13;10.67;;;;;;;10.15;78.63;101206.81;6121355;23;20165;-64
2021/11/03 03:22:37;;;;;;;99.57;10.80;;;;;;;10.10;78.57;101207.28;6121210;23;20171;-64
2021/11/03 03:25:05;;;;;;;32.23;9.50;;;;;;;10.01;78.47;101198.66;6120419;23;20163;-64
2021/11/03 03:27:30;;;;;;;79.43;9.33;;;;;;;9.98;78.43;101205.00;6121559;23;20169;-63
2021/11/03 03:29:56;;;;;;;61.67;9.77;;;;;;;10.00;78.43;101197.09;6121725;23;20236;-61
2021/11/03 03:32:24;;;;;;;25.90;8.33;;;;;;;10.01;78.44;101204.19;6120997;23;20156;-64
2021/11/03 03:34:50;;;;;;;44.23;7.80;;;;;;;9.85;78.18;101201.22;6120345;23;20232;-63
2021/11/03 03:37:16;;;;;;;33.43;7.43;;;;;;;9.86;78.19;101198.03;6121124;23;20159;-64
2021/11/03 03:39:42;;;;;;;36.73;7.63;;;;;;;9.66;77.95;101179.69;6121289;23;20184;-65
2021/11/03 03:42:12;;;;;;;44.17;8.53;;;;;;;9.82;78.06;101218.63;6120901;23;20164;-64
2021/11/03 03:44:38;;;;;;;38.57;8.17;;;;;;;9.53;77.94;101165.59;6120228;23;20155;-64
2021/11/03 03:47:05;;;;;;;29.53;8.10;;;;;;;9.47;77.52;101152.63;6121343;23;20240;-64
2021/11/03 03:49:31;;;;;;;20.50;7.53;;;;;;;9.79;77.72;101211.94;6120941;23;20290;-64
2021/11/03 03:51:56;;;;;;;43.43;8.43;;;;;;;9.80;77.41;101218.28;6120915;23;20159;-64
2021/11/03 03:54:22;;;;;;;36.87;8.47;;;;;;;9.72;76.88;101217.56;6120482;23;20487;-64
2021/11/03 03:56:48;;;;;;;42.03;8.93;;;;;;;9.74;77.31;101217.94;6120899;23;20208;-64
2021/11/03 03:59:13;;;;;;;37.50;9.23;;;;;;;9.64;77.48;101207.75;6121176;23;20150;-64
2021/11/03 04:01:39;;;;;;;48.00;9.37;;;;;;;9.68;77.28;101216.06;6121010;23;20157;-63
2021/11/03 04:04:07;;;;;;;34.07;9.03;;;;;;;9.54;77.61;101208.66;6121368;23;20150;-64
2021/11/03 04:06:33;;;;;;;24.77;8.57;;;;;;;9.60;77.72;101198.75;6120133;23;20192;-64
2021/11/03 04:08:58;;;;;;;70.43;10.63;;;;;;;9.64;77.75;101220.84;6121224;23;20178;-64
2021/11/03 04:11:24;;;;;;;26.97;8.90;;;;;;;9.47;77.48;101199.66;6120788;23;20598;-64
2021/11/03 04:13:49;;;;;;;16.90;8.63;;;;;;;9.64;78.20;101209.75;6121000;23;20156;-64
2021/11/03 04:16:15;;;;;;;18.73;9.20;;;;;;;9.68;78.11;101211.28;6119825;23;20156;-64
2021/11/03 04:18:40;;;;;;;14.67;8.07;;;;;;;9.70;77.79;101216.41;6121498;23;20324;-64
2021/11/03 04:21:06;;;;;;;15.00;7.97;;;;;;;9.74;77.59;101217.16;6121048;23;20161;-64
2021/11/03 04:23:32;;;;;;;21.23;8.07;;;;;;;9.74;77.53;101226.25;6121522;23;20164;-64
2021/11/03 04:25:58;;;;;;;29.50;7.80;;;;;;;9.74;77.39;101220.69;6119824;23;20183;-64
2021/11/03 04:28:23;;;;;;;17.47;8.20;;;;;;;9.74;76.93;101220.69;6120813;23;20185;-64
2021/11/03 04:30:49;;;;;;;20.50;7.70;;;;;;;9.10;76.49;101116.66;6121602;23;20220;-63
2021/11/03 04:33:15;;;;;;;34.13;8.47;;;;;;;9.66;76.20;101210.91;6120742;23;20180;-61
2021/11/03 04:35:41;;;;;;;23.67;8.17;;;;;;;8.57;77.09;101048.06;6119823;23;20152;-61
2021/11/03 04:38:06;;;;;;;20.90;8.67;;;;;;;9.62;77.31;101217.69;6121083;23;20675;-61
2021/11/03 04:40:33;;;;;;;21.97;8.20;;;;;;;9.66;77.24;101213.69;6120802;23;20166;-61
2021/11/03 04:42:58;;;;;;;15.90;7.70;;;;;;;9.64;77.26;101215.28;6120463;23;20161;-62
2021/11/03 04:45:25;;;;;;;24.07;8.00;;;;;;;9.67;77.30;101220.00;6120971;23;20153;-61
2021/11/03 04:47:52;;;;;;;17.70;8.37;;;;;;;9.66;76.85;101221.19;6122485;23;20288;-61
2021/11/03 04:50:21;;;;;;;37.87;8.77;;;;;;;9.63;76.99;101219.25;6122716;23;20150;-61
2021/11/03 04:52:47;;;;;;;48.07;8.90;;;;;;;9.45;76.99;101226.94;6122907;23;20159;-61
2021/11/03 04:55:13;;;;;;;29.90;8.00;;;;;;;9.05;77.20;101158.56;6121417;23;20170;-61
2021/11/03 04:57:39;;;;;;;33.73;8.87;;;;;;;9.20;77.90;101174.66;6122949;23;20158;-61
2021/11/03 05:00:08;;;;;;;19.13;8.17;;;;;;;9.56;77.41;101228.41;6122656;23;20237;-61
2021/11/03 05:02:34;;;;;;;29.03;8.87;;;;;;;9.58;77.55;101239.84;6122119;23;20157;-62
2021/11/03 05:05:00;;;;;;;84.23;9.63;;;;;;;8.99;77.07;101138.91;6121517;23;20165;-61
2021/11/03 05:07:25;;;;;;;40.77;8.60;;;;;;;9.50;77.22;101223.75;6122928;23;20234;-62
2021/11/03 05:09:51;;;;;;;36.50;8.60;;;;;;;9.52;77.39;101235.16;6122566;23;20206;-61
2021/11/03 05:12:16;;;;;;;71.93;10.10;;;;;;;9.44;77.64;101248.28;6122201;23;20639;-61
2021/11/03 05:14:42;;;;;;;59.67;9.83;;;;;;;9.38;77.63;101261.00;6121610;23;20511;-62
2021/11/03 05:17:07;;;;;;;54.13;8.83;;;;;;;9.38;77.79;101258.22;6122600;23;20163;-62
2021/11/03 05:19:33;;;;;;;70.00;9.73;;;;;;;8.88;77.91;101190.72;6122764;23;20201;-62
2021/11/03 05:22:00;;;;;;;71.13;10.03;;;;;;;9.30;78.34;101267.00;6122233;23;20158;-61
2021/11/03 05:24:28;;;;;;;72.13;9.83;;;;;;;9.26;77.99;101252.41;6121961;23;20228;-61
2021/11/03 05:26:54;;;;;;;57.07;8.80;;;;;;;8.82;78.05;101188.81;6121864;23;20161;-61
2021/11/03 05:29:21;;;;;;;134.37;11.53;;;;;;;9.31;78.12;101268.56;6122657;23;20179;-61
2021/11/03 05:31:46;;;;;;;93.17;10.40;;;;;;;9.29;78.52;101268.19;6122362;23;20476;-61
2021/11/03 05:34:12;;;;;;;143.20;11.03;;;;;;;8.86;78.33;101223.50;6122173;23;20161;-61
2021/11/03 05:36:38;;;;;;;130.70;10.67;;;;;;;9.13;78.26;101281.75;6121905;23;20228;-61
2021/11/03 05:39:07;;;;;;;76.13;9.77;;;;;;;9.06;78.72;101282.59;6122213;23;20171;-61
2021/11/03 05:41:38;;;;;;;107.97;10.33;;;;;;;8.19;79.04;101150.50;6122086;23;20529;-61
2021/11/03 05:44:08;;;;;;;157.90;11.80;;;;;;;8.29;78.74;101185.59;6111623;23;20614;-61
2021/11/03 05:46:37;;;;;;;144.57;11.43;;;;;;;9.02;79.45;101287.34;6094123;23;20185;-62
2021/11/03 05:49:06;;;;;;;139.67;11.37;;;;;;;8.39;79.30;101180.00;6111660;23;20425;-62
2021/11/03 05:51:32;;;;;;;112.43;10.27;;;;;;;8.93;79.53;101280.72;6109840;23;20183;-62
2021/11/03 05:53:58;;;;;;;146.07;11.40;;;;;;;8.80;79.89;101298.94;6107477;23;20161;-62
2021/11/03 05:56:23;;;;;;;91.13;10.73;;;;;;;8.92;79.79;101304.78;6117549;23;20593;-61
2021/11/03 05:58:49;;;;;;;81.63;9.77;;;;;;;9.00;79.84;101314.63;6119171;23;20205;-61
2021/11/03 06:01:15;;;;;;;116.20;10.80;;;;;;;8.97;79.70;101304.38;6119389;23;20158;-61
2021/11/03 06:03:41;;;;;;;99.47;10.03;;;;;;;8.92;79.56;101299.25;6119912;23;20162;-61
2021/11/03 06:06:06;;;;;;;78.37;10.00;;;;;;;8.97;79.61;101307.13;6119372;23;20161;-61
2021/11/03 06:08:32;;;;;;;64.40;10.57;;;;;;;8.48;79.70;101212.72;6119661;23;20186;-62
2021/11/03 06:10:58;;;;;;;108.50;11.43;;;;;;;9.04;80.43;101296.03;6119433;23;20692;-62
2021/11/03 06:13:24;;;;;;;104.73;12.80;;;;;;;9.15;79.83;101309.78;6119457;23;20271;-61
2021/11/03 06:15:50;;;;;;;122.83;11.57;;;;;;;8.72;79.52;101242.94;6119426;23;20160;-61
2021/11/03 06:18:15;;;;;;;59.23;8.83;;;;;;;9.30;79.62;101325.06;6093902;23;20225;-62
2021/11/03 06:20:41;;;;;;;97.03;8.87;;;;;;;9.35;79.55;101333.75;6119065;23;20158;-62
2021/11/03 06:23:06;;;;;;;77.73;8.70;;;;;;;9.38;79.14;101332.16;6119332;23;20680;-62
2021/11/03 06:25:33;;;;;;;54.30;8.57;;;;;;;9.28;79.24;101328.25;6119628;23;20162;-62
2021/11/03 06:27:59;;;;;;;45.13;7.53;;;;;;;9.48;79.06;101334.03;6114664;23;20663;-61
2021/11/03 06:30:29;;;;;;;51.93;8.03;;;;;;;9.63;79.34;101341.03;6118354;23;20165;-62
2021/11/03 06:32:54;;;;;;;61.03;9.27;;;;;;;9.47;79.05;101299.25;6093136;23;20162;-62
2021/11/03 06:35:21;;;;;;;93.40;10.03;;;;;;;9.43;78.18;101284.69;6118555;23;20158;-61
2021/11/03 06:37:47;;;;;;;24.67;8.50;;;;;;;9.88;78.26;101345.13;6119719;23;20604;-61
2021/11/03 06:40:17;;;;;;;44.30;8.40;;;;;;;10.01;78.10;101350.94;6119438;23;20165;-61
2021/11/03 06:42:43;;;;;;;33.83;7.43;;;;;;;10.01;77.59;101329.59;6117820;23;20164;-62
2021/11/03 06:45:11;;;;;;;32.77;7.50;;;;;;;10.20;77.64;101347.63;6092741;23;20162;-63
2021/11/03 06:47:36;;;;;;;71.77;7.67;;;;;;;10.21;77.29;101349.97;6119790;23;20647;-63
2021/11/03 06:50:04;;;;;;;44.87;7.97;;;;;;;10.35;77.13;101351.81;6117263;23;20174;-63
2021/11/03 06:52:30;;;;;;;28.50;13.00;;;;;;;10.48;76.62;101355.59;6118339;23;20161;-65
2021/11/03 06:54:56;;;;;;;33.83;18.40;;;;;;;10.59;75.52;101356.25;6118467;23;20162;-65
2021/11/03 06:57:21;;;;;;;55.90;19.50;;;;;;;10.58;74.70;101358.25;6117829;23;20478;-65
2021/11/03 06:59:48;;;;;;;62.93;20.03;;;;;;;10.50;75.07;101353.22;6119272;23;20499;-65
2021/11/03 07:02:17;;;;;;;44.40;16.50;;;;;;;10.50;74.98;101348.44;6118395;23;20509;-65
2021/11/03 07:04:43;;;;;;;42.67;17.10;;;;;;;10.44;75.54;101358.41;6118657;23;20161;-65
2021/11/03 07:07:09;;;;;;;43.00;17.87;;;;;;;10.33;75.83;101327.28;6118937;23;20158;-65
2021/11/03 07:09:35;;;;;;;29.63;16.27;;;;;;;10.63;75.83;101374.44;6119568;23;20182;-66
2021/11/03 07:12:00;;;;;;;41.57;17.03;;;;;;;10.77;75.53;101373.47;6118446;23;20158;-65
2021/11/03 07:14:26;;;;;;;39.33;16.73;;;;;;;10.75;75.25;101370.28;6118735;23;20220;-66
2021/11/03 07:16:52;;;;;;;66.17;18.60;;;;;;;10.70;74.65;101379.88;6118307;23;20150;-64
2021/11/03 07:19:18;;;;;;;47.27;17.23;;;;;;;10.64;75.68;101383.50;6092790;23;20542;-65
2021/11/03 07:21:44;;;;;;;27.07;18.20;;;;;;;10.51;75.81;101358.31;6117917;23;20154;-65
2021/11/03 07:24:12;;;;;;;40.50;18.07;;;;;;;10.84;74.79;101399.09;6118498;23;20217;-64
2021/11/03 07:26:42;;;;;;;32.93;17.60;;;;;;;10.82;74.65;101379.31;6118667;23;20213;-66
2021/11/03 07:29:08;;;;;;;42.30;18.67;;;;;;;10.44;74.62;101319.63;6118497;23;20587;-66
2021/11/03 07:31:34;;;;;;;62.70;19.27;;;;;;;10.87;74.19;101409.34;6118338;23;20844;-66
2021/11/03 07:34:00;;;;;;;34.50;18.60;;;;;;;10.95;74.27;101402.53;6118161;23;20209;-66
2021/11/03 07:36:26;;;;;;;33.77;18.80;;;;;;;11.07;73.77;101401.19;6117927;23;20469;-66
2021/11/03 07:38:52;;;;;;;33.77;18.03;;;;;;;11.20;73.61;101397.44;6092918;23;20496;-65
2021/11/03 07:41:17;;;;;;;64.87;19.27;;;;;;;11.18;73.35;101390.72;6117922;23;20468;-65
2021/11/03 07:43:44;;;;;;;68.97;19.10;;;;;;;10.60;73.38;101333.66;6118627;23;20213;-66
2021/11/03 07:46:11;;;;;;;67.00;18.60;;;;;;;11.15;73.01;101402.66;6118249;23;20154;-66
2021/11/03 07:48:37;;;;;;;47.17;18.10;;;;;;;11.14;73.07;101410.19;6118636;23;20194;-66
2021/11/03 07:51:06;;;;;;;35.37;18.27;;;;;;;11.22;74.16;101422.75;6119261;23;20154;-66
2021/11/03 07:53:32;;;;;;;51.47;13.30;;;;;;;11.11;73.86;101422.13;6119077;23;20649;-66
2021/11/03 07:56:00;;;;;;;37.83;9.87;;;;;;;11.16;74.03;101426.41;6118558;23;20166;-66
2021/11/03 07:58:33;;;;;;;21.73;9.07;;;;;;;11.26;73.75;101415.19;6119136;23;20181;-65
2021/11/03 08:00:59;;;;;;;18.23;7.30;;;;;;;10.85;73.61;101342.44;6118990;23;20151;-66
2021/11/03 08:03:26;;;;;;;20.17;7.60;;;;;;;11.38;73.52;101411.81;6118339;23;20154;-66
2021/11/03 08:05:53;;;;;;;13.60;7.00;;;;;;;11.56;73.48;101417.09;6118705;23;20155;-66
2021/11/03 08:08:21;;;;;;;8.47;6.00;;;;;;;11.67;73.64;101403.88;6119178;23;20178;-66
2021/11/03 08:10:47;;;;;;;8.13;5.23;;;;;;;11.85;73.23;101419.06;6119669;23;20169;-66
2021/11/03 08:13:16;;;;;;;5.90;5.00;;;;;;;12.00;72.92;101431.47;6118231;23;20162;-66
2021/11/03 08:15:47;;;;;;;7.50;5.73;;;;;;;12.08;72.42;101421.03;6091966;23;20162;-65
2021/11/03 08:18:13;;;;;;;8.73;6.07;;;;;;;12.15;71.45;101430.03;6118045;23;20540;-66
2021/11/03 08:20:40;;;;;;;7.73;6.77;;;;;;;12.18;70.60;101434.75;6119116;23;20158;-66
2021/11/03 08:23:06;;;;;;;7.57;6.57;;;;;;;11.89;70.87;101407.91;6117871;23;20235;-66
2021/11/03 08:25:32;;;;;;;7.53;6.73;;;;;;;12.16;70.79;101437.19;6117948;23;20164;-66
2021/11/03 08:27:58;;;;;;;7.73;6.53;;;;;;;12.17;71.10;101441.53;6118839;23;20155;-66
2021/11/03 08:30:24;;;;;;;9.53;6.10;;;;;;;12.32;71.47;101430.94;6119394;23;20510;-66
2021/11/03 08:32:52;;;;;;;7.53;5.70;;;;;;;12.27;71.30;101417.53;6117886;23;20166;-66
2021/11/03 08:35:21;;;;;;;9.97;6.17;;;;;;;12.23;71.13;101405.69;6117671;23;20246;-66
2021/11/03 08:37:50;;;;;;;11.10;6.30;;;;;;;12.00;70.96;101364.81;6118641;23;20156;-66
2021/11/03 08:40:17;;;;;;;9.07;6.73;;;;;;;12.37;70.83;101424.91;6118279;23;20585;-66
2021/11/03 08:42:42;;;;;;;10.07;6.77;;;;;;;12.18;71.08;101415.31;6118018;23;20165;-66
2021/11/03 08:45:10;;;;;;;10.37;6.90;;;;;;;11.85;71.92;101390.50;6118238;23;20644;-66
2021/11/03 08:47:36;;;;;;;12.47;6.97;;;;;;;11.47;72.50;101398.22;6117996;23;20681;-66
2021/11/03 08:50:05;;;;;;;14.07;6.70;;;;;;;11.29;73.41;101403.25;6118828;23;20178;-67
2021/11/03 08:52:30;;;;;;;7.43;6.50;;;;;;;11.09;73.90;101394.03;6118797;23;20596;-66
2021/11/03 08:54:57;;;;;;;9.43;6.97;;;;;;;11.02;74.37;101385.00;6117477;23;20189;-64
2021/11/03 08:57:23;;;;;;;8.13;6.43;;;;;;;11.44;74.13;101393.50;6118621;23;20632;-65
2021/11/03 08:59:50;;;;;;;6.37;5.77;;;;;;;11.68;73.67;101413.78;6118504;23;20479;-63
2021/11/03 09:02:15;;;;;;;7.80;5.93;;;;;;;11.79;73.33;101384.63;6118566;23;20150;-64
2021/11/03 09:04:41;;;;;;;6.60;5.93;;;;;;;12.08;73.13;101393.25;6117405;23;20168;-66
2021/11/03 09:07:11;;;;;;;6.63;5.70;;;;;;;12.18;72.36;101395.06;6118884;23;20293;-66
2021/11/03 09:09:38;;;;;;;7.00;6.07;;;;;;;12.06;72.37;101399.25;6118500;23;20186;-66
2021/11/03 09:12:05;;;;;;;7.70;6.20;;;;;;;12.21;71.88;101402.56;6118330;23;20660;-66
2021/11/03 09:14:31;;;;;;;7.20;6.50;;;;;;;12.46;71.33;101402.88;6117618;23;20155;-67
2021/11/03 09:16:56;;;;;;;7.87;7.07;;;;;;;12.57;71.24;101401.47;6118264;23;20165;-66
2021/11/03 09:19:22;;;;;;;7.73;6.97;;;;;;;12.79;70.76;101397.03;6119681;23;20559;-65
2021/11/03 09:21:47;;;;;;;8.37;7.47;;;;;;;13.00;70.06;101390.25;6118605;23;20159;-67
2021/11/03 09:24:13;;;;;;;10.37;7.37;;;;;;;12.77;70.01;101387.56;6118156;23;20155;-66
2021/11/03 09:26:40;;;;;;;7.93;7.13;;;;;;;12.89;70.13;101387.69;6118583;23;20158;-65
2021/11/03 09:29:06;;;;;;;12.30;9.77;;;;;;;12.97;69.86;101396.72;6118424;23;20221;-67
2021/11/03 09:31:32;;;;;;;11.67;10.33;;;;;;;12.83;69.39;101392.19;6119507;23;20154;-66
2021/11/03 09:34:00;;;;;;;11.07;9.67;;;;;;;12.46;70.47;101403.66;6116051;23;20244;-66
2021/11/03 09:36:27;;;;;;;12.00;8.90;;;;;;;12.56;70.84;101394.31;6117478;23;20150;-65
2021/11/03 09:38:53;;;;;;;9.17;8.23;;;;;;;12.58;71.33;101397.47;6118641;23;20150;-66
2021/11/03 09:41:27;;;;;;;10.97;8.67;;;;;;;12.81;71.35;101389.03;6120308;23;20240;-67
2021/11/03 09:44:14;;;;;;;11.90;7.90;;;;;;;12.81;70.96;101389.03;6119234;23;20151;-67
2021/11/03 09:46:43;;;;;;;8.23;7.43;;;;;;;12.86;70.96;101394.09;6119991;23;20494;-68
2021/11/03 09:49:10;;;;;;;11.73;7.37;;;;;;;12.88;71.22;101393.69;6118790;23;20208;-68
2021/11/03 09:51:36;;;;;;;7.93;7.03;;;;;;;13.02;70.72;101383.06;6120434;23;20171;-68
2021/11/03 09:54:07;;;;;;;11.67;7.27;;;;;;;13.06;70.41;101374.66;6119817;23;20612;-68
2021/11/03 09:56:41;;;;;;;8.47;7.00;;;;;;;13.17;70.02;101387.09;6119861;23;20162;-68
2021/11/03 09:59:19;;;;;;;7.93;6.97;;;;;;;13.31;69.67;101381.22;6120193;23;20157;-68
2021/11/03 10:01:48;;;;;;;7.07;6.37;;;;;;;13.14;69.54;101379.63;6120104;23;20146;-69
2021/11/03 10:04:38;;;;;;;8.13;7.33;;;;;;;12.95;70.22;101382.41;6118995;23;20161;-69
2021/11/03 10:07:17;;;;;;;8.50;7.53;;;;;;;13.02;70.61;101374.72;6119951;23;20167;-68
2021/11/03 10:09:42;;;;;;;8.70;7.23;;;;;;;13.14;70.50;101392.75;6119457;23;20321;-68
2021/11/03 10:12:14;;;;;;;13.03;11.00;;;;;;;13.16;70.13;101382.75;6119576;23;20178;-68
2021/11/03 10:14:41;;;;;;;19.53;14.40;;;;;;;13.04;70.54;101379.84;6119870;23;20159;-69
2021/11/03 10:17:18;;;;;;;21.60;19.30;;;;;;;13.11;70.94;101377.69;6119799;23;20163;-68
2021/11/03 10:19:44;;;;;;;19.17;15.30;;;;;;;13.11;70.52;101380.47;6120090;23;20157;-68
2021/11/03 10:22:29;;;;;;;19.00;14.93;;;;;;;12.87;70.94;101381.00;6119890;23;20513;-69
2021/11/03 10:25:05;;;;;;;16.17;14.47;;;;;;;12.60;71.64;101374.81;6119061;23;20145;-68
2021/11/03 10:27:41;;;;;;;16.40;14.27;;;;;;;12.68;71.71;101348.41;6119916;23;20158;-67
2021/11/03 10:30:47;;;;;;;15.83;13.73;;;;;;;12.56;72.37;101374.09;6120216;23;20620;-68
2021/11/03 10:33:21;;;;;;;18.33;15.23;;;;;;;12.35;72.27;101311.34;6103989;23;20236;-69
2021/11/03 10:36:12;;;;;;;18.53;15.53;;;;;;;12.80;72.15;101373.56;6119702;23;20149;-68
2021/11/03 10:38:47;;;;;;;16.80;14.80;;;;;;;12.77;72.49;101379.22;6119538;23;20152;-68
2021/11/03 10:41:29;;;;;;;19.40;16.60;;;;;;;12.82;72.31;101362.78;6119833;23;20674;-68
2021/11/03 10:44:06;;;;;;;19.53;16.10;;;;;;;12.88;72.45;101369.44;6093142;23;20225;-68
2021/11/03 10:46:41;;;;;;;18.93;16.93;;;;;;;12.94;72.20;101362.16;6114149;23;20619;-68
2021/11/03 10:49:27;;;;;;;19.97;17.10;;;;;;;12.73;72.30;101372.94;6119482;23;20290;-68
2021/11/03 10:52:02;;;;;;;20.00;17.90;;;;;;;12.56;72.99;101363.75;6091666;23;20603;-68
2021/11/03 10:54:44;;;;;;;19.43;16.67;;;;;;;12.54;73.81;101377.28;6119282;23;20148;-68
2021/11/03 10:57:22;;;;;;;20.40;18.20;;;;;;;12.71;73.51;101369.81;6119269;23;20220;-68
2021/11/03 10:59:59;;;;;;;23.20;17.87;;;;;;;12.88;72.82;101366.66;6119416;23;20142;-68
2021/11/03 11:02:28;;;;;;;23.73;19.60;;;;;;;12.86;72.65;101359.97;6119154;23;20149;-68
2021/11/03 11:04:56;;;;;;;25.57;21.50;;;;;;;12.84;72.72;101367.94;6118393;23;20155;-68
2021/11/03 11:07:29;;;;;;;28.47;23.43;;;;;;;12.80;72.95;101365.22;6119683;23;20158;-67
2021/11/03 11:10:00;;;;;;;29.27;23.37;;;;;;;12.91;72.93;101371.34;6119141;23;20186;-66
2021/11/03 11:12:39;;;;;;;28.87;24.50;;;;;;;13.01;72.45;101353.66;6118231;23;20612;-65
2021/11/03 11:15:13;;;;;;;30.37;25.47;;;;;;;13.08;73.44;101363.88;6118682;23;20148;-66
2021/11/03 11:18:11;;;;;;;29.33;24.40;;;;;;;13.11;73.18;101358.22;6119549;23;20572;-66